sensor_id;sensor_type;location;lat;lon;timestamp;pressure;altitude;pressure_sealevel;temperature;humidity
59588;BME280;45412;54.472;18.464;2023-02-28T00:01:52;101465.39;;;-5.76;90.91
59588;BME280;45412;54.472;18.464;2023-02-28T00:04:40;101466.42;;;-5.76;91.29
59588;BME280;45412;54.472;18.464;2023-02-28T00:07:29;101470.06;;;-5.75;91.23
59588;BME280;45412;54.472;18.464;2023-02-28T00:10:20;101472.85;;;-5.73;91.29
59588;BME280;45412;54.472;18.464;2023-02-28T00:13:08;101469.38;;;-5.75;91.19
59588;BME280;45412;54.472;18.464;2023-02-28T00:16:14;101469.89;;;-5.76;91.21
59588;BME280;45412;54.472;18.464;2023-02-28T00:19:03;101472.98;;;-5.77;90.79
59588;BME280;45412;54.472;18.464;2023-02-28T00:21:51;101470.71;;;-5.80;91.13
59588;BME280;45412;54.472;18.464;2023-02-28T00:24:38;101460.47;;;-5.83;91.07
59588;BME280;45412;54.472;18.464;2023-02-28T00:27:26;101462.89;;;-5.84;91.20
59588;BME280;45412;54.472;18.464;2023-02-28T00:30:20;101468.72;;;-5.87;91.13
59588;BME280;45412;54.472;18.464;2023-02-28T00:33:08;101466.26;;;-5.90;90.83
59588;BME280;45412;54.472;18.464;2023-02-28T00:36:06;101463.31;;;-5.91;91.01
59588;BME280;45412;54.472;18.464;2023-02-28T00:38:56;101467.96;;;-5.92;90.91
59588;BME280;45412;54.472;18.464;2023-02-28T00:41:44;101467.09;;;-5.93;90.99
59588;BME280;45412;54.472;18.464;2023-02-28T00:44:33;101466.05;;;-5.93;91.34
59588;BME280;45412;54.472;18.464;2023-02-28T00:47:21;101463.65;;;-5.92;91.47
59588;BME280;45412;54.472;18.464;2023-02-28T00:50:10;101465.39;;;-5.90;91.45
59588;BME280;45412;54.472;18.464;2023-02-28T00:52:58;101464.52;;;-5.91;91.37
59588;BME280;45412;54.472;18.464;2023-02-28T00:55:49;101468.13;;;-5.92;91.07
59588;BME280;45412;54.472;18.464;2023-02-28T00:58:37;101466.71;;;-5.96;90.74
59588;BME280;45412;54.472;18.464;2023-02-28T01:01:25;101468.09;;;-6.00;90.62
59588;BME280;45412;54.472;18.464;2023-02-28T01:04:14;101468.90;;;-6.03;90.73
59588;BME280;45412;54.472;18.464;2023-02-28T01:07:02;101464.03;;;-6.05;90.71
59588;BME280;45412;54.472;18.464;2023-02-28T01:09:50;101464.35;;;-6.07;90.70
59588;BME280;45412;54.472;18.464;2023-02-28T01:12:38;101465.54;;;-6.09;90.49
59588;BME280;45412;54.472;18.464;2023-02-28T01:15:26;101470.21;;;-6.07;90.94
59588;BME280;45412;54.472;18.464;2023-02-28T01:18:14;101467.14;;;-6.06;90.97
59588;BME280;45412;54.472;18.464;2023-02-28T01:21:08;101460.20;;;-6.08;91.01
59588;BME280;45412;54.472;18.464;2023-02-28T01:23:58;101467.35;;;-6.03;90.96
59588;BME280;45412;54.472;18.464;2023-02-28T01:26:45;101460.60;;;-6.04;90.48
59588;BME280;45412;54.472;18.464;2023-02-28T01:29:33;101452.56;;;-6.10;90.48
59588;BME280;45412;54.472;18.464;2023-02-28T01:32:21;101455.67;;;-6.10;90.72
59588;BME280;45412;54.472;18.464;2023-02-28T01:35:10;101456.84;;;-6.12;91.17
59588;BME280;45412;54.472;18.464;2023-02-28T01:37:58;101456.71;;;-6.10;91.38
59588;BME280;45412;54.472;18.464;2023-02-28T01:41:03;101456.90;;;-6.09;91.02
59588;BME280;45412;54.472;18.464;2023-02-28T01:43:57;101445.27;;;-6.13;90.74
59588;BME280;45412;54.472;18.464;2023-02-28T01:46:45;101447.38;;;-6.09;90.44
59588;BME280;45412;54.472;18.464;2023-02-28T01:49:34;101446.38;;;-6.08;90.94
59588;BME280;45412;54.472;18.464;2023-02-28T01:52:22;101445.36;;;-6.05;90.87
59588;BME280;45412;54.472;18.464;2023-02-28T01:55:14;101444.71;;;-6.03;90.98
59588;BME280;45412;54.472;18.464;2023-02-28T01:58:05;101448.02;;;-6.02;90.56
59588;BME280;45412;54.472;18.464;2023-02-28T02:00:54;101447.80;;;-6.04;90.09
59588;BME280;45412;54.472;18.464;2023-02-28T02:03:42;101454.00;;;-6.06;90.09
59588;BME280;45412;54.472;18.464;2023-02-28T02:06:38;101459.83;;;-6.09;89.98
59588;BME280;45412;54.472;18.464;2023-02-28T02:09:29;101455.80;;;-6.13;89.90
59588;BME280;45412;54.472;18.464;2023-02-28T02:16:04;101459.91;;;-6.17;89.98
59588;BME280;45412;54.472;18.464;2023-02-28T02:29:31;101467.05;;;-6.12;90.54
59588;BME280;45412;54.472;18.464;2023-02-28T02:36:04;101457.56;;;-6.25;90.51
59588;BME280;45412;54.472;18.464;2023-02-28T02:39:29;101461.73;;;-6.22;90.85
59588;BME280;45412;54.472;18.464;2023-02-28T02:45:47;101463.98;;;-6.23;90.64
59588;BME280;45412;54.472;18.464;2023-02-28T02:48:39;101466.58;;;-6.22;90.99
59588;BME280;45412;54.472;18.464;2023-02-28T02:51:30;101468.87;;;-6.18;91.09
59588;BME280;45412;54.472;18.464;2023-02-28T02:54:34;101463.34;;;-6.18;90.86
59588;BME280;45412;54.472;18.464;2023-02-28T02:57:36;101467.34;;;-6.16;90.98
59588;BME280;45412;54.472;18.464;2023-02-28T03:00:32;101472.20;;;-6.16;91.25
59588;BME280;45412;54.472;18.464;2023-02-28T03:03:23;101470.98;;;-6.16;91.41
59588;BME280;45412;54.472;18.464;2023-02-28T03:06:16;101472.21;;;-6.14;91.54
59588;BME280;45412;54.472;18.464;2023-02-28T03:09:04;101472.91;;;-6.12;91.79
59588;BME280;45412;54.472;18.464;2023-02-28T03:11:55;101472.42;;;-6.11;91.38
59588;BME280;45412;54.472;18.464;2023-02-28T03:18:08;101468.68;;;-6.06;91.41
59588;BME280;45412;54.472;18.464;2023-02-28T03:27:31;101465.33;;;-5.99;91.94
59588;BME280;45412;54.472;18.464;2023-02-28T03:30:45;101460.66;;;-5.99;91.63
59588;BME280;45412;54.472;18.464;2023-02-28T03:33:39;101461.18;;;-5.99;91.71
59588;BME280;45412;54.472;18.464;2023-02-28T03:36:37;101465.31;;;-5.98;91.74
59588;BME280;45412;54.472;18.464;2023-02-28T03:39:43;101463.09;;;-5.95;92.24
59588;BME280;45412;54.472;18.464;2023-02-28T03:42:35;101464.86;;;-5.92;92.00
59588;BME280;45412;54.472;18.464;2023-02-28T03:45:28;101469.59;;;-5.87;91.95
59588;BME280;45412;54.472;18.464;2023-02-28T03:48:27;101469.09;;;-5.84;91.86
59588;BME280;45412;54.472;18.464;2023-02-28T03:51:21;101470.71;;;-5.79;92.00
59588;BME280;45412;54.472;18.464;2023-02-28T03:54:19;101471.27;;;-5.75;92.05
59588;BME280;45412;54.472;18.464;2023-02-28T03:57:27;101475.45;;;-5.73;91.79
59588;BME280;45412;54.472;18.464;2023-02-28T04:00:37;101472.20;;;-5.72;91.73
59588;BME280;45412;54.472;18.464;2023-02-28T04:03:28;101470.44;;;-5.73;91.82
59588;BME280;45412;54.472;18.464;2023-02-28T04:06:21;101468.00;;;-5.75;91.98
59588;BME280;45412;54.472;18.464;2023-02-28T04:09:13;101461.22;;;-5.78;91.66
59588;BME280;45412;54.472;18.464;2023-02-28T04:12:02;101462.41;;;-5.80;91.79
59588;BME280;45412;54.472;18.464;2023-02-28T04:14:50;101471.59;;;-5.78;91.89
59588;BME280;45412;54.472;18.464;2023-02-28T04:17:38;101473.33;;;-5.77;91.85
59588;BME280;45412;54.472;18.464;2023-02-28T04:20:26;101464.87;;;-5.76;91.87
59588;BME280;45412;54.472;18.464;2023-02-28T04:23:14;101461.95;;;-5.75;91.75
59588;BME280;45412;54.472;18.464;2023-02-28T04:26:03;101456.09;;;-5.72;91.74
59588;BME280;45412;54.472;18.464;2023-02-28T04:28:51;101444.33;;;-5.74;91.74
59588;BME280;45412;54.472;18.464;2023-02-28T04:31:39;101454.59;;;-5.69;91.96
59588;BME280;45412;54.472;18.464;2023-02-28T04:34:31;101457.55;;;-5.67;91.91
59588;BME280;45412;54.472;18.464;2023-02-28T04:37:20;101456.70;;;-5.65;91.97
59588;BME280;45412;54.472;18.464;2023-02-28T04:40:08;101459.67;;;-5.62;92.03
59588;BME280;45412;54.472;18.464;2023-02-28T04:42:56;101466.23;;;-5.63;91.77
59588;BME280;45412;54.472;18.464;2023-02-28T04:45:44;101466.95;;;-5.62;91.66
59588;BME280;45412;54.472;18.464;2023-02-28T04:48:36;101461.58;;;-5.62;91.64
59588;BME280;45412;54.472;18.464;2023-02-28T04:51:24;101461.40;;;-5.62;91.68
59588;BME280;45412;54.472;18.464;2023-02-28T04:54:12;101456.55;;;-5.63;91.68
59588;BME280;45412;54.472;18.464;2023-02-28T04:57:01;101459.49;;;-5.62;91.55
59588;BME280;45412;54.472;18.464;2023-02-28T04:59:49;101459.52;;;-5.61;91.54
59588;BME280;45412;54.472;18.464;2023-02-28T05:02:37;101461.93;;;-5.60;91.78
59588;BME280;45412;54.472;18.464;2023-02-28T05:05:27;101461.80;;;-5.59;91.78
59588;BME280;45412;54.472;18.464;2023-02-28T05:08:14;101460.92;;;-5.58;91.58
59588;BME280;45412;54.472;18.464;2023-02-28T05:11:03;101460.77;;;-5.59;91.51
59588;BME280;45412;54.472;18.464;2023-02-28T05:13:52;101457.81;;;-5.58;91.51
59588;BME280;45412;54.472;18.464;2023-02-28T05:16:42;101459.04;;;-5.58;91.79
59588;BME280;45412;54.472;18.464;2023-02-28T05:19:30;101455.23;;;-5.57;91.62
59588;BME280;45412;54.472;18.464;2023-02-28T05:22:18;101455.61;;;-5.54;91.51
59588;BME280;45412;54.472;18.464;2023-02-28T05:25:08;101449.23;;;-5.52;91.61
59588;BME280;45412;54.472;18.464;2023-02-28T05:27:56;101449.81;;;-5.46;91.59
59588;BME280;45412;54.472;18.464;2023-02-28T05:30:44;101451.77;;;-5.40;91.72
59588;BME280;45412;54.472;18.464;2023-02-28T05:33:32;101449.73;;;-5.36;91.56
59588;BME280;45412;54.472;18.464;2023-02-28T05:36:20;101449.94;;;-5.33;91.56
59588;BME280;45412;54.472;18.464;2023-02-28T05:39:09;101443.58;;;-5.30;91.49
59588;BME280;45412;54.472;18.464;2023-02-28T05:42:01;101441.52;;;-5.28;91.58
59588;BME280;45412;54.472;18.464;2023-02-28T05:44:49;101436.33;;;-5.26;91.36
59588;BME280;45412;54.472;18.464;2023-02-28T05:47:38;101431.10;;;-5.30;91.07
59588;BME280;45412;54.472;18.464;2023-02-28T05:50:26;101436.00;;;-5.26;90.91
59588;BME280;45412;54.472;18.464;2023-02-28T05:53:14;101434.46;;;-5.24;91.19
59588;BME280;45412;54.472;18.464;2023-02-28T05:56:05;101439.67;;;-5.22;90.98
59588;BME280;45412;54.472;18.464;2023-02-28T05:58:53;101439.38;;;-5.16;91.10
59588;BME280;45412;54.472;18.464;2023-02-28T06:01:43;101444.63;;;-5.10;90.82
59588;BME280;45412;54.472;18.464;2023-02-28T06:04:37;101444.83;;;-5.06;90.63
59588;BME280;45412;54.472;18.464;2023-02-28T06:07:24;101449.04;;;-5.00;90.46
59588;BME280;45412;54.472;18.464;2023-02-28T06:10:13;101444.91;;;-4.97;90.33
59588;BME280;45412;54.472;18.464;2023-02-28T06:13:03;101448.23;;;-4.94;90.22
59588;BME280;45412;54.472;18.464;2023-02-28T06:15:50;101451.69;;;-4.94;90.01
59588;BME280;45412;54.472;18.464;2023-02-28T06:18:38;101453.95;;;-4.91;90.00
59588;BME280;45412;54.472;18.464;2023-02-28T06:21:27;101456.05;;;-4.89;89.87
59588;BME280;45412;54.472;18.464;2023-02-28T06:24:16;101457.11;;;-4.85;89.84
59588;BME280;45412;54.472;18.464;2023-02-28T06:27:04;101459.08;;;-4.80;89.56
59588;BME280;45412;54.472;18.464;2023-02-28T06:29:55;101455.98;;;-4.74;89.71
59588;BME280;45412;54.472;18.464;2023-02-28T06:32:43;101462.29;;;-4.66;89.69
59588;BME280;45412;54.472;18.464;2023-02-28T06:35:31;101461.48;;;-4.58;89.73
59588;BME280;45412;54.472;18.464;2023-02-28T06:38:19;101458.58;;;-4.52;89.21
59588;BME280;45412;54.472;18.464;2023-02-28T06:41:08;101461.91;;;-4.46;89.28
59588;BME280;45412;54.472;18.464;2023-02-28T06:43:57;101466.29;;;-4.39;89.42
59588;BME280;45412;54.472;18.464;2023-02-28T06:46:45;101464.92;;;-4.32;89.36
59588;BME280;45412;54.472;18.464;2023-02-28T06:49:34;101465.48;;;-4.25;89.47
59588;BME280;45412;54.472;18.464;2023-02-28T06:52:23;101462.08;;;-4.16;89.70
59588;BME280;45412;54.472;18.464;2023-02-28T06:55:10;101465.60;;;-4.05;89.61
59588;BME280;45412;54.472;18.464;2023-02-28T06:57:58;101463.23;;;-3.95;89.33
59588;BME280;45412;54.472;18.464;2023-02-28T07:00:51;101460.33;;;-3.83;89.14
59588;BME280;45412;54.472;18.464;2023-02-28T07:03:40;101456.90;;;-3.71;88.87
59588;BME280;45412;54.472;18.464;2023-02-28T07:06:28;101456.60;;;-3.58;89.24
59588;BME280;45412;54.472;18.464;2023-02-28T07:09:16;101459.59;;;-3.41;89.14
59588;BME280;45412;54.472;18.464;2023-02-28T07:12:04;101456.33;;;-3.22;88.86
59588;BME280;45412;54.472;18.464;2023-02-28T07:14:52;101451.31;;;-2.93;88.08
59588;BME280;45412;54.472;18.464;2023-02-28T07:17:40;101444.66;;;-2.41;86.97
59588;BME280;45412;54.472;18.464;2023-02-28T07:20:28;101440.09;;;-1.19;85.84
59588;BME280;45412;54.472;18.464;2023-02-28T07:23:16;101437.47;;;0.83;81.51
59588;BME280;45412;54.472;18.464;2023-02-28T07:26:12;101427.53;;;3.02;77.47
59588;BME280;45412;54.472;18.464;2023-02-28T07:29:02;101419.73;;;5.07;69.89
59588;BME280;45412;54.472;18.464;2023-02-28T07:31:50;101411.02;;;6.79;63.44
59588;BME280;45412;54.472;18.464;2023-02-28T07:34:40;101406.89;;;8.29;55.92
59588;BME280;45412;54.472;18.464;2023-02-28T07:37:28;101402.55;;;9.43;51.59
59588;BME280;45412;54.472;18.464;2023-02-28T07:40:19;101400.60;;;10.50;48.51
59588;BME280;45412;54.472;18.464;2023-02-28T07:43:07;101392.70;;;11.44;45.71
59588;BME280;45412;54.472;18.464;2023-02-28T07:46:00;101388.45;;;12.30;43.16
59588;BME280;45412;54.472;18.464;2023-02-28T07:48:48;101374.62;;;12.95;38.84
59588;BME280;45412;54.472;18.464;2023-02-28T07:51:36;101376.33;;;13.39;36.65
59588;BME280;45412;54.472;18.464;2023-02-28T07:54:24;101380.80;;;13.93;36.05
59588;BME280;45412;54.472;18.464;2023-02-28T07:57:12;101382.08;;;14.44;34.12
59588;BME280;45412;54.472;18.464;2023-02-28T07:59:59;101376.73;;;14.76;33.24
59588;BME280;45412;54.472;18.464;2023-02-28T08:02:58;101376.23;;;15.21;32.51
59588;BME280;45412;54.472;18.464;2023-02-28T08:05:46;101382.55;;;15.69;32.13
59588;BME280;45412;54.472;18.464;2023-02-28T08:08:35;101376.36;;;16.03;29.95
59588;BME280;45412;54.472;18.464;2023-02-28T08:11:23;101373.89;;;16.14;29.16
59588;BME280;45412;54.472;18.464;2023-02-28T08:14:11;101373.87;;;16.25;29.20
59588;BME280;45412;54.472;18.464;2023-02-28T08:16:59;101382.41;;;16.32;28.44
59588;BME280;45412;54.472;18.464;2023-02-28T08:19:47;101384.98;;;16.51;28.44
59588;BME280;45412;54.472;18.464;2023-02-28T08:22:35;101381.73;;;16.93;28.16
59588;BME280;45412;54.472;18.464;2023-02-28T08:25:23;101371.94;;;17.06;27.22
59588;BME280;45412;54.472;18.464;2023-02-28T08:28:11;101368.79;;;17.36;27.22
59588;BME280;45412;54.472;18.464;2023-02-28T08:31:00;101359.86;;;17.50;26.26
59588;BME280;45412;54.472;18.464;2023-02-28T08:33:48;101360.12;;;17.70;25.77
59588;BME280;45412;54.472;18.464;2023-02-28T08:36:39;101362.85;;;18.05;25.82
59588;BME280;45412;54.472;18.464;2023-02-28T08:39:28;101366.39;;;18.24;25.04
59588;BME280;45412;54.472;18.464;2023-02-28T08:42:16;101362.71;;;18.17;25.15
59588;BME280;45412;54.472;18.464;2023-02-28T08:45:04;101365.86;;;18.34;25.08
59588;BME280;45412;54.472;18.464;2023-02-28T08:47:54;101373.10;;;18.43;24.71
59588;BME280;45412;54.472;18.464;2023-02-28T08:50:42;101370.98;;;18.61;24.41
59588;BME280;45412;54.472;18.464;2023-02-28T08:53:39;101374.31;;;18.81;24.31
59588;BME280;45412;54.472;18.464;2023-02-28T08:56:28;101375.64;;;18.81;23.51
59588;BME280;45412;54.472;18.464;2023-02-28T08:59:16;101379.91;;;18.59;23.88
59588;BME280;45412;54.472;18.464;2023-02-28T09:02:04;101385.52;;;18.79;24.07
59588;BME280;45412;54.472;18.464;2023-02-28T09:04:52;101386.38;;;18.81;23.47
59588;BME280;45412;54.472;18.464;2023-02-28T09:07:39;101388.38;;;18.67;23.84
59588;BME280;45412;54.472;18.464;2023-02-28T09:10:28;101386.88;;;18.74;24.02
59588;BME280;45412;54.472;18.464;2023-02-28T09:13:16;101387.30;;;18.95;23.43
59588;BME280;45412;54.472;18.464;2023-02-28T09:16:07;101385.94;;;19.29;23.40
59588;BME280;45412;54.472;18.464;2023-02-28T09:18:55;101384.21;;;19.49;22.97
59588;BME280;45412;54.472;18.464;2023-02-28T09:21:43;101381.47;;;19.52;22.84
59588;BME280;45412;54.472;18.464;2023-02-28T09:24:31;101377.82;;;19.67;23.02
59588;BME280;45412;54.472;18.464;2023-02-28T09:27:20;101371.05;;;19.97;22.89
59588;BME280;45412;54.472;18.464;2023-02-28T09:30:08;101369.79;;;20.18;22.20
59588;BME280;45412;54.472;18.464;2023-02-28T09:32:57;101371.36;;;20.46;22.54
59588;BME280;45412;54.472;18.464;2023-02-28T09:35:45;101369.97;;;20.58;22.12
59588;BME280;45412;54.472;18.464;2023-02-28T09:38:33;101375.32;;;20.56;21.45
59588;BME280;45412;54.472;18.464;2023-02-28T09:41:26;101375.33;;;20.66;21.71
59588;BME280;45412;54.472;18.464;2023-02-28T09:44:36;101366.84;;;20.81;21.29
59588;BME280;45412;54.472;18.464;2023-02-28T09:47:32;101366.41;;;20.94;20.99
59588;BME280;45412;54.472;18.464;2023-02-28T09:50:40;101365.95;;;21.14;21.15
59588;BME280;45412;54.472;18.464;2023-02-28T09:53:36;101362.86;;;21.14;20.86
59588;BME280;45412;54.472;18.464;2023-02-28T09:56:39;101360.86;;;21.27;20.96
59588;BME280;45412;54.472;18.464;2023-02-28T10:06:17;101354.80;;;22.46;19.94
59588;BME280;45412;54.472;18.464;2023-02-28T10:09:16;101346.02;;;22.65;19.86
59588;BME280;45412;54.472;18.464;2023-02-28T10:12:07;101347.84;;;22.60;19.21
59588;BME280;45412;54.472;18.464;2023-02-28T10:14:59;101340.66;;;22.46;19.09
59588;BME280;45412;54.472;18.464;2023-02-28T10:17:52;101340.00;;;22.23;19.27
59588;BME280;45412;54.472;18.464;2023-02-28T10:20:56;101339.56;;;21.95;19.16
59588;BME280;45412;54.472;18.464;2023-02-28T10:23:44;101342.27;;;22.14;19.83
59588;BME280;45412;54.472;18.464;2023-02-28T10:26:36;101346.20;;;22.57;19.44
59588;BME280;45412;54.472;18.464;2023-02-28T10:29:24;101347.72;;;22.91;19.11
59588;BME280;45412;54.472;18.464;2023-02-28T10:32:23;101347.15;;;23.26;18.49
59588;BME280;45412;54.472;18.464;2023-02-28T10:35:16;101348.66;;;23.42;18.68
59588;BME280;45412;54.472;18.464;2023-02-28T10:38:15;101356.45;;;23.32;18.19
59588;BME280;45412;54.472;18.464;2023-02-28T10:41:10;101350.78;;;22.97;18.40
59588;BME280;45412;54.472;18.464;2023-02-28T10:44:17;101353.63;;;22.80;18.98
59588;BME280;45412;54.472;18.464;2023-02-28T10:47:17;101357.48;;;22.65;19.24
59588;BME280;45412;54.472;18.464;2023-02-28T10:50:33;101361.73;;;22.58;19.50
59588;BME280;45412;54.472;18.464;2023-02-28T10:59:28;101343.09;;;22.40;19.30
59588;BME280;45412;54.472;18.464;2023-02-28T11:02:37;101339.80;;;22.66;18.77
59588;BME280;45412;54.472;18.464;2023-02-28T11:05:33;101337.84;;;22.65;18.67
59588;BME280;45412;54.472;18.464;2023-02-28T11:08:22;101334.09;;;22.53;19.10
59588;BME280;45412;54.472;18.464;2023-02-28T11:11:11;101331.88;;;22.67;19.07
59588;BME280;45412;54.472;18.464;2023-02-28T11:14:05;101329.73;;;22.77;18.88
59588;BME280;45412;54.472;18.464;2023-02-28T11:16:55;101326.77;;;22.53;18.93
59588;BME280;45412;54.472;18.464;2023-02-28T11:19:51;101323.02;;;22.30;19.41
59588;BME280;45412;54.472;18.464;2023-02-28T11:22:44;101318.80;;;22.18;19.76
59588;BME280;45412;54.472;18.464;2023-02-28T11:25:36;101317.73;;;21.95;19.43
59588;BME280;45412;54.472;18.464;2023-02-28T11:28:28;101317.00;;;21.85;19.73
59588;BME280;45412;54.472;18.464;2023-02-28T11:31:18;101311.86;;;21.70;19.83
59588;BME280;45412;54.472;18.464;2023-02-28T11:34:34;101309.08;;;21.39;20.10
59588;BME280;45412;54.472;18.464;2023-02-28T11:37:22;101307.13;;;21.07;19.97
59588;BME280;45412;54.472;18.464;2023-02-28T11:40:18;101303.28;;;20.74;20.97
59588;BME280;45412;54.472;18.464;2023-02-28T11:43:45;101296.23;;;20.45;21.41
59588;BME280;45412;54.472;18.464;2023-02-28T11:56:53;101270.20;;;18.33;23.39
59588;BME280;45412;54.472;18.464;2023-02-28T12:09:20;101264.35;;;16.91;24.91
59588;BME280;45412;54.472;18.464;2023-02-28T12:12:29;101255.23;;;16.30;25.04
59588;BME280;45412;54.472;18.464;2023-02-28T12:22:32;101256.63;;;15.05;27.09
59588;BME280;45412;54.472;18.464;2023-02-28T12:29:10;101259.98;;;14.27;27.52
59588;BME280;45412;54.472;18.464;2023-02-28T12:32:36;101262.30;;;13.91;27.50
59588;BME280;45412;54.472;18.464;2023-02-28T12:35:36;101264.47;;;13.63;28.26
59588;BME280;45412;54.472;18.464;2023-02-28T12:41:45;101259.23;;;13.18;29.06
59588;BME280;45412;54.472;18.464;2023-02-28T12:44:46;101259.39;;;12.77;29.41
59588;BME280;45412;54.472;18.464;2023-02-28T12:47:38;101257.84;;;12.25;30.25
59588;BME280;45412;54.472;18.464;2023-02-28T12:50:29;101258.40;;;11.74;30.80
59588;BME280;45412;54.472;18.464;2023-02-28T12:53:39;101263.13;;;11.41;31.39
59588;BME280;45412;54.472;18.464;2023-02-28T12:59:56;101264.38;;;10.61;32.61
59588;BME280;45412;54.472;18.464;2023-02-28T13:03:21;101261.48;;;10.47;33.63
59588;BME280;45412;54.472;18.464;2023-02-28T13:07:11;101255.87;;;10.08;34.32
59588;BME280;45412;54.472;18.464;2023-02-28T13:10:06;101255.16;;;9.57;35.65
59588;BME280;45412;54.472;18.464;2023-02-28T13:12:55;101260.10;;;9.24;36.24
59588;BME280;45412;54.472;18.464;2023-02-28T13:16:06;101257.79;;;8.90;37.32
59588;BME280;45412;54.472;18.464;2023-02-28T13:19:09;101256.05;;;8.51;38.34
59588;BME280;45412;54.472;18.464;2023-02-28T13:21:58;101257.26;;;8.15;38.99
59588;BME280;45412;54.472;18.464;2023-02-28T13:24:50;101261.69;;;7.92;39.61
59588;BME280;45412;54.472;18.464;2023-02-28T13:27:40;101258.52;;;7.77;40.58
59588;BME280;45412;54.472;18.464;2023-02-28T13:36:46;101250.04;;;6.91;43.17
59588;BME280;45412;54.472;18.464;2023-02-28T13:42:36;101245.84;;;6.57;44.71
59588;BME280;45412;54.472;18.464;2023-02-28T13:45:34;101244.55;;;6.32;45.68
59588;BME280;45412;54.472;18.464;2023-02-28T13:48:28;101244.58;;;6.14;46.39
59588;BME280;45412;54.472;18.464;2023-02-28T13:58:07;101234.27;;;5.66;48.92
59588;BME280;45412;54.472;18.464;2023-02-28T14:07:25;101226.19;;;5.38;50.97
59588;BME280;45412;54.472;18.464;2023-02-28T14:10:39;101223.51;;;5.29;51.61
59588;BME280;45412;54.472;18.464;2023-02-28T14:13:46;101221.83;;;5.23;52.27
59588;BME280;45412;54.472;18.464;2023-02-28T14:19:34;101220.70;;;5.05;53.56
59588;BME280;45412;54.472;18.464;2023-02-28T14:26:25;101215.32;;;4.83;54.93
59588;BME280;45412;54.472;18.464;2023-02-28T14:32:44;101219.45;;;4.66;56.15
59588;BME280;45412;54.472;18.464;2023-02-28T14:38:51;101214.81;;;4.52;57.05
59588;BME280;45412;54.472;18.464;2023-02-28T14:41:43;101214.17;;;4.50;57.11
59588;BME280;45412;54.472;18.464;2023-02-28T14:44:31;101218.14;;;4.48;57.41
59588;BME280;45412;54.472;18.464;2023-02-28T14:47:19;101219.33;;;4.44;57.63
59588;BME280;45412;54.472;18.464;2023-02-28T14:50:38;101216.57;;;4.36;58.04
59588;BME280;45412;54.472;18.464;2023-02-28T14:53:30;101221.21;;;4.29;57.86
59588;BME280;45412;54.472;18.464;2023-02-28T14:56:28;101217.21;;;4.22;58.39
59588;BME280;45412;54.472;18.464;2023-02-28T14:59:35;101225.95;;;4.24;58.46
59588;BME280;45412;54.472;18.464;2023-02-28T15:02:26;101218.45;;;4.17;58.95
59588;BME280;45412;54.472;18.464;2023-02-28T15:05:31;101212.04;;;4.09;59.76
59588;BME280;45412;54.472;18.464;2023-02-28T15:08:20;101206.73;;;3.99;60.44
59588;BME280;45412;54.472;18.464;2023-02-28T15:11:15;101194.02;;;3.90;60.60
59588;BME280;45412;54.472;18.464;2023-02-28T15:14:04;101191.67;;;3.81;60.98
59588;BME280;45412;54.472;18.464;2023-02-28T15:17:01;101188.38;;;3.74;61.53
59588;BME280;45412;54.472;18.464;2023-02-28T15:19:54;101190.20;;;3.66;61.87
59588;BME280;45412;54.472;18.464;2023-02-28T15:22:43;101192.05;;;3.57;62.71
59588;BME280;45412;54.472;18.464;2023-02-28T15:25:34;101196.36;;;3.48;63.07
59588;BME280;45412;54.472;18.464;2023-02-28T15:28:23;101199.05;;;3.40;63.42
59588;BME280;45412;54.472;18.464;2023-02-28T15:31:31;101194.75;;;3.32;63.77
59588;BME280;45412;54.472;18.464;2023-02-28T15:40:25;101209.77;;;3.03;64.75
59588;BME280;45412;54.472;18.464;2023-02-28T15:46:12;101200.54;;;2.88;65.21
59588;BME280;45412;54.472;18.464;2023-02-28T15:49:01;101196.06;;;2.79;66.33
59588;BME280;45412;54.472;18.464;2023-02-28T15:51:52;101196.91;;;2.66;66.57
59588;BME280;45412;54.472;18.464;2023-02-28T15:54:41;101195.63;;;2.56;66.85
59588;BME280;45412;54.472;18.464;2023-02-28T15:57:30;101193.75;;;2.47;66.98
59588;BME280;45412;54.472;18.464;2023-02-28T16:00:22;101190.85;;;2.37;67.46
59588;BME280;45412;54.472;18.464;2023-02-28T16:03:32;101183.19;;;2.29;67.28
59588;BME280;45412;54.472;18.464;2023-02-28T16:06:39;101182.41;;;2.17;67.67
59588;BME280;45412;54.472;18.464;2023-02-28T16:09:30;101184.27;;;2.06;67.90
59588;BME280;45412;54.472;18.464;2023-02-28T16:12:27;101181.39;;;1.95;68.87
59588;BME280;45412;54.472;18.464;2023-02-28T16:15:29;101180.56;;;1.85;68.60
59588;BME280;45412;54.472;18.464;2023-02-28T16:18:19;101186.41;;;1.74;69.20
59588;BME280;45412;54.472;18.464;2023-02-28T16:21:08;101189.09;;;1.64;69.32
59588;BME280;45412;54.472;18.464;2023-02-28T16:23:56;101194.38;;;1.55;69.84
59588;BME280;45412;54.472;18.464;2023-02-28T16:26:48;101196.33;;;1.45;70.00
59588;BME280;45412;54.472;18.464;2023-02-28T16:29:37;101196.35;;;1.36;70.33
59588;BME280;45412;54.472;18.464;2023-02-28T16:32:25;101193.05;;;1.28;70.84
59588;BME280;45412;54.472;18.464;2023-02-28T16:35:13;101199.67;;;1.19;71.38
59588;BME280;45412;54.472;18.464;2023-02-28T16:38:01;101201.92;;;1.12;71.47
59588;BME280;45412;54.472;18.464;2023-02-28T16:40:51;101196.33;;;1.03;71.83
59588;BME280;45412;54.472;18.464;2023-02-28T16:43:39;101192.27;;;0.96;71.66
59588;BME280;45412;54.472;18.464;2023-02-28T16:46:33;101188.03;;;0.90;72.16
59588;BME280;45412;54.472;18.464;2023-02-28T16:49:22;101188.70;;;0.82;72.79
59588;BME280;45412;54.472;18.464;2023-02-28T16:52:11;101187.05;;;0.77;72.21
59588;BME280;45412;54.472;18.464;2023-02-28T16:55:01;101184.20;;;0.70;72.60
59588;BME280;45412;54.472;18.464;2023-02-28T16:58:00;101191.13;;;0.65;72.72
59588;BME280;45412;54.472;18.464;2023-02-28T17:00:49;101192.44;;;0.59;72.86